createdAt,value
2023-05-12T00:00:47.799Z,74.2
2023-05-12T00:02:04.095Z,74.2
2023-05-12T00:03:20.399Z,74.6
2023-05-12T00:04:36.667Z,74.6
2023-05-12T00:05:52.973Z,73.5
2023-05-12T00:07:09.269Z,74.2
2023-05-12T00:08:25.555Z,75.3
2023-05-12T00:09:40.852Z,75.2
2023-05-12T00:10:57.147Z,73.9
2023-05-12T00:12:13.450Z,73.4
2023-05-12T00:13:29.747Z,73.1
2023-05-12T00:14:46.038Z,74.6
2023-05-12T00:16:02.333Z,74.7
2023-05-12T00:17:18.628Z,74
2023-05-12T00:18:34.922Z,73.9
2023-05-12T00:19:51.000Z,73.9
2023-05-12T00:21:07.511Z,72.3
2023-05-12T00:22:23.790Z,72
2023-05-12T00:23:40.071Z,72.6
2023-05-12T00:24:56.382Z,72.8
2023-05-12T00:26:11.682Z,73.5
2023-05-12T00:27:27.976Z,73.1
2023-05-12T00:28:44.260Z,74
2023-05-12T00:30:00.573Z,73.3
2023-05-12T00:31:16.842Z,73.2
2023-05-12T00:32:33.152Z,74.1
2023-05-12T00:33:49.433Z,73.9
2023-05-12T00:35:05.737Z,74.7
2023-05-12T00:36:22.014Z,73.7
2023-05-12T00:37:38.322Z,73.3
2023-05-12T00:38:54.610Z,72.6
2023-05-12T00:40:10.901Z,74.4
2023-05-12T00:41:27.203Z,73.8
2023-05-12T00:42:42.495Z,72.9
2023-05-12T00:43:58.789Z,72
2023-05-12T00:45:15.080Z,73.1
2023-05-12T00:46:31.397Z,74.7
2023-05-12T00:47:47.674Z,75.3
2023-05-12T00:49:03.953Z,76.3
2023-05-12T00:50:20.255Z,76.8
2023-05-12T00:51:36.556Z,75
2023-05-12T00:52:52.848Z,74.5
2023-05-12T00:54:09.139Z,75.2
2023-05-12T00:55:25.423Z,76.2
2023-05-12T00:56:41.726Z,75.5
2023-05-12T00:57:58.021Z,73.9
2023-05-12T00:59:13.318Z,74.7
2023-05-12T01:00:29.618Z,75.7
2023-05-12T01:01:45.902Z,74.5
2023-05-12T01:03:02.198Z,74.6
2023-05-12T01:04:18.482Z,75.4
2023-05-12T01:05:34.790Z,73.8
2023-05-12T01:06:51.070Z,75.3
2023-05-12T01:08:07.358Z,73.3
2023-05-12T01:09:23.661Z,75
2023-05-12T01:10:39.952Z,75.9
2023-05-12T01:11:56.261Z,75.3
2023-05-12T01:13:12.530Z,74.8
2023-05-12T01:14:28.826Z,73.9
2023-05-12T01:15:44.139Z,73.4
2023-05-12T01:17:00.423Z,74.6
2023-05-12T01:18:16.718Z,74.5
2023-05-12T01:19:33.019Z,72.8
2023-05-12T01:20:49.321Z,74.3
2023-05-12T01:22:05.593Z,75.2
2023-05-12T01:23:21.896Z,74.6
2023-05-12T01:24:38.189Z,74.8
2023-05-12T01:25:54.491Z,75
2023-05-12T01:27:10.763Z,73.9
2023-05-12T01:28:27.065Z,73.3
2023-05-12T01:29:43.352Z,73.8
2023-05-12T01:30:59.643Z,73.8
2023-05-12T01:32:14.958Z,73.8
2023-05-12T01:33:31.262Z,73.6
2023-05-12T01:34:47.543Z,74
2023-05-12T01:36:03.856Z,74.7
2023-05-12T01:37:20.150Z,75.1
2023-05-12T01:38:36.439Z,75.9
2023-05-12T01:39:52.717Z,75.7
2023-05-12T01:41:08.999Z,76.2
2023-05-12T01:42:25.295Z,77
2023-05-12T01:43:41.617Z,77
2023-05-12T01:44:57.907Z,76.7
2023-05-12T01:46:14.202Z,76
2023-05-12T01:47:30.474Z,75.8
2023-05-12T01:48:45.785Z,76.4
2023-05-12T01:50:02.090Z,76.4
2023-05-12T01:51:18.379Z,76.5
2023-05-12T01:52:34.649Z,76.8
2023-05-12T01:53:50.946Z,76.9
2023-05-12T01:55:07.246Z,77.5
2023-05-12T01:56:23.528Z,77.4
2023-05-12T01:57:39.834Z,78.1
2023-05-12T01:58:56.132Z,77.7
2023-05-12T02:00:12.416Z,77.3
2023-05-12T02:01:28.711Z,77.4
2023-05-12T02:02:44.991Z,77.5
2023-05-12T02:04:01.296Z,79.3
2023-05-12T02:05:16.623Z,79.2
2023-05-12T02:06:32.900Z,78.3
2023-05-12T02:07:49.177Z,78.4
2023-05-12T02:09:05.490Z,79.2
2023-05-12T02:10:21.787Z,78.3
2023-05-12T02:11:38.061Z,79.1
2023-05-12T02:12:54.349Z,80.5
2023-05-12T02:14:10.652Z,80.5
2023-05-12T02:15:26.930Z,79.8
2023-05-12T02:16:43.227Z,80.1
2023-05-12T02:17:59.516Z,79.1
2023-05-12T02:19:15.807Z,79.2
2023-05-12T02:20:32.119Z,78.8
2023-05-12T02:21:47.443Z,78.7
2023-05-12T02:23:03.735Z,78.8
2023-05-12T02:24:19.995Z,79.6
2023-05-12T02:25:36.310Z,80.3
2023-05-12T02:26:52.611Z,80.7
2023-05-12T02:28:08.893Z,80.9
2023-05-12T02:29:25.186Z,82
2023-05-12T02:30:41.459Z,82.5
2023-05-12T02:31:57.772Z,83.1
2023-05-12T02:33:14.056Z,83.2
2023-05-12T02:34:30.338Z,83
2023-05-12T02:35:46.635Z,82.9
2023-05-12T02:37:02.937Z,83.3
2023-05-12T02:38:18.229Z,83.4
2023-05-12T02:39:34.542Z,82.8
2023-05-12T02:40:50.831Z,82.4
2023-05-12T02:42:07.138Z,82.4
2023-05-12T02:43:23.000Z,82
2023-05-12T02:44:39.717Z,82
2023-05-12T02:45:56.001Z,82
2023-05-12T02:47:12.301Z,82.5
2023-05-12T02:48:28.571Z,82.4
2023-05-12T02:49:44.871Z,82.2
2023-05-12T02:51:01.178Z,82.2
2023-05-12T02:52:17.453Z,83
2023-05-12T02:53:33.763Z,83.5
2023-05-12T02:54:49.000Z,84.4
2023-05-12T02:56:05.290Z,84.1
2023-05-12T02:57:21.591Z,83.5
2023-05-12T02:58:37.844Z,83
2023-05-12T02:59:54.090Z,83.2
2023-05-12T03:01:10.378Z,83.2
2023-05-12T03:02:26.683Z,83.4
2023-05-12T03:03:42.000Z,83.3
2023-05-12T03:04:59.144Z,84.2
2023-05-12T03:06:15.430Z,84.7
2023-05-12T03:07:31.691Z,83.8
2023-05-12T03:08:47.962Z,83.3
2023-05-12T03:10:04.186Z,83.9
2023-05-12T03:11:19.452Z,83.8
2023-05-12T03:12:35.688Z,82.7
2023-05-12T03:13:51.908Z,82.3
2023-05-12T03:15:08.156Z,82.3
2023-05-12T03:16:24.384Z,83.1
2023-05-12T03:17:40.657Z,83.1
2023-05-12T03:18:56.891Z,83.7
2023-05-12T03:20:13.125Z,84.2
2023-05-12T03:21:29.341Z,83.8
2023-05-12T03:22:45.579Z,83.3
2023-05-12T03:24:01.849Z,82.9
2023-05-12T03:25:18.068Z,82.7
2023-05-12T03:26:34.304Z,83.5
2023-05-12T03:27:49.586Z,83.6
2023-05-12T03:29:05.790Z,84.2
2023-05-12T03:30:22.051Z,83.6
2023-05-12T03:31:38.274Z,82.8
2023-05-12T03:32:54.503Z,82.7
2023-05-12T03:34:10.753Z,82.6
2023-05-12T03:35:26.998Z,82.8
2023-05-12T03:36:43.219Z,83.6
2023-05-12T03:37:59.467Z,83.9
2023-05-12T03:39:15.726Z,83.9
2023-05-12T03:40:31.946Z,83.4
2023-05-12T03:41:48.194Z,83.2
2023-05-12T03:43:04.420Z,83.2
2023-05-12T03:44:19.710Z,83.4
2023-05-12T03:45:35.919Z,83.6
2023-05-12T03:46:52.176Z,83.8
2023-05-12T03:48:08.400Z,83.6
2023-05-12T03:49:24.629Z,84.1
2023-05-12T03:50:40.887Z,84.8
2023-05-12T03:51:56.149Z,83.6
2023-05-12T03:53:12.370Z,83.7
2023-05-12T03:54:28.617Z,83.6
2023-05-12T03:55:44.839Z,83.5
2023-05-12T03:57:01.094Z,83.6
2023-05-12T03:58:17.324Z,84.1
2023-05-12T03:59:33.584Z,84.6
2023-05-12T04:00:49.800Z,84.9
2023-05-12T04:02:06.042Z,85.1
2023-05-12T04:03:22.275Z,84.4
2023-05-12T04:04:38.518Z,83.6
2023-05-12T04:05:54.778Z,83.8
2023-05-12T04:07:10.991Z,83.9
2023-05-12T04:08:26.252Z,83.7
2023-05-12T04:09:42.484Z,83.4
2023-05-12T04:10:58.737Z,84.2
2023-05-12T04:12:14.970Z,84.1
2023-05-12T04:13:31.205Z,84.7
2023-05-12T04:14:47.446Z,84.7
2023-05-12T04:16:03.703Z,84.5
2023-05-12T04:17:19.932Z,82.8
2023-05-12T04:18:36.158Z,82.7
2023-05-12T04:19:52.394Z,83.3
2023-05-12T04:21:08.656Z,84.3
2023-05-12T04:22:24.903Z,83.9
2023-05-12T04:23:41.115Z,83.4
2023-05-12T04:24:56.000Z,83
2023-05-12T04:26:12.619Z,82.5
2023-05-12T04:27:28.855Z,82.2
2023-05-12T04:28:45.101Z,82.3
2023-05-12T04:30:01.319Z,81.8
2023-05-12T04:31:17.566Z,81.4
2023-05-12T04:32:33.800Z,81.1
2023-05-12T04:33:50.062Z,80.2
2023-05-12T04:35:06.281Z,80.3
2023-05-12T04:36:22.518Z,81.1
2023-05-12T04:37:38.761Z,80.3
2023-05-12T04:38:55.004Z,79.4
2023-05-12T04:40:11.260Z,79.7
2023-05-12T04:41:26.514Z,80.1
2023-05-12T04:42:42.738Z,80.6
2023-05-12T04:43:58.963Z,80.4
2023-05-12T04:45:15.225Z,77.7
2023-05-12T04:46:31.442Z,77.2
2023-05-12T04:47:47.705Z,77.5
2023-05-12T04:49:03.926Z,78.1
2023-05-12T04:50:20.164Z,77.6
2023-05-12T04:51:36.406Z,77.5
2023-05-12T04:52:52.662Z,77.7
2023-05-12T04:54:08.905Z,76.5
2023-05-12T04:55:25.151Z,76.6
2023-05-12T04:56:41.357Z,75.9
2023-05-12T04:57:56.610Z,76
2023-05-12T04:59:12.869Z,75.4
2023-05-12T05:00:29.119Z,75.4
2023-05-12T05:01:45.359Z,75.6
2023-05-12T05:03:01.591Z,75.6
2023-05-12T05:04:17.805Z,75.5
2023-05-12T05:05:34.072Z,74.4
2023-05-12T05:06:50.276Z,73.9
2023-05-12T05:08:06.512Z,73.9
2023-05-12T05:09:22.758Z,73.5
2023-05-12T05:10:39.033Z,74.2
2023-05-12T05:11:55.228Z,73.5
2023-05-12T05:13:11.469Z,73.4
2023-05-12T05:14:26.721Z,73.8
2023-05-12T05:15:42.990Z,73.6
2023-05-12T05:16:59.201Z,73.3
2023-05-12T05:18:15.444Z,73.5
2023-05-12T05:19:31.000Z,72.9
2023-05-12T05:20:47.920Z,72.6
2023-05-12T05:22:04.154Z,72.5
2023-05-12T05:23:20.424Z,72.6
2023-05-12T05:24:36.665Z,72.2
2023-05-12T05:25:52.888Z,72.7
2023-05-12T05:27:09.108Z,72.2
2023-05-12T05:28:25.353Z,72.5
2023-05-12T05:29:41.593Z,72.3
2023-05-12T05:30:56.869Z,72.5
2023-05-12T05:32:13.000Z,72.8
2023-05-12T05:33:29.320Z,72.3
2023-05-12T05:34:45.556Z,72.2
2023-05-12T05:36:01.815Z,71.2
2023-05-12T05:37:18.048Z,70.8
2023-05-12T05:38:34.305Z,70.6
2023-05-12T05:39:50.514Z,71.5
2023-05-12T05:41:06.782Z,71.1
2023-05-12T05:42:23.034Z,70.8
2023-05-12T05:43:39.230Z,71
2023-05-12T05:44:55.473Z,71.1
2023-05-12T05:46:11.705Z,70.7
2023-05-12T05:47:26.963Z,70.8
2023-05-12T05:48:43.232Z,71
2023-05-12T05:49:59.445Z,71.4
2023-05-12T05:51:15.687Z,70.8
2023-05-12T05:52:31.943Z,70.7
2023-05-12T05:53:48.159Z,71.2
2023-05-12T05:55:04.396Z,71
2023-05-12T05:56:20.657Z,71.1
2023-05-12T05:57:36.899Z,71.1
2023-05-12T05:58:53.118Z,70.6
2023-05-12T06:00:09.348Z,69.6
2023-05-12T06:01:25.614Z,69.8
2023-05-12T06:02:41.835Z,69.2
2023-05-12T06:03:57.119Z,69.3
2023-05-12T06:05:13.319Z,69.4
2023-05-12T06:06:29.000Z,68.6
2023-05-12T06:07:45.828Z,68.9
2023-05-12T06:09:02.034Z,68.7
2023-05-12T06:10:18.300Z,69.4
2023-05-12T06:11:34.550Z,69.4
2023-05-12T06:12:50.752Z,69.2
2023-05-12T06:14:07.018Z,69
2023-05-12T06:15:23.229Z,69.1
2023-05-12T06:16:39.466Z,69.7
2023-05-12T06:17:55.718Z,68.2
2023-05-12T06:19:11.974Z,68.7
2023-05-12T06:20:27.234Z,67.3
2023-05-12T06:21:43.439Z,66.9
2023-05-12T06:22:59.720Z,67.2
2023-05-12T06:24:15.949Z,65.8
2023-05-12T06:25:32.197Z,65.4
2023-05-12T06:26:48.428Z,65.4
2023-05-12T06:28:04.638Z,65
2023-05-12T06:29:20.914Z,65.2
2023-05-12T06:30:37.126Z,65.7
2023-05-12T06:31:53.383Z,64.9
2023-05-12T06:33:09.000Z,64.7
2023-05-12T06:34:25.828Z,65.5
2023-05-12T06:35:42.077Z,65.7
2023-05-12T06:36:57.000Z,66
2023-05-12T06:38:13.558Z,64.6
2023-05-12T06:39:29.796Z,64.3
2023-05-12T06:40:46.067Z,63.9
2023-05-12T06:42:02.277Z,64.2
2023-05-12T06:43:18.514Z,63.3
2023-05-12T06:44:34.756Z,62.9
2023-05-12T06:45:50.998Z,63.9
2023-05-12T06:47:07.235Z,62.6
2023-05-12T06:48:23.476Z,63.3
2023-05-12T06:49:39.742Z,63.1
2023-05-12T06:50:55.956Z,62.1
2023-05-12T06:52:12.190Z,62.8
2023-05-12T06:53:28.556Z,62.9
2023-05-12T06:54:44.790Z,62
2023-05-12T06:56:01.040Z,61.8
2023-05-12T06:57:17.293Z,61.3
2023-05-12T06:58:33.508Z,62
2023-05-12T06:59:49.738Z,61.4
2023-05-12T07:01:05.981Z,60.5
2023-05-12T07:02:22.219Z,61.6
2023-05-12T07:03:38.492Z,61.7
2023-05-12T07:04:54.710Z,60.8
2023-05-12T07:06:10.962Z,61.7
2023-05-12T07:07:27.192Z,61.1
2023-05-12T07:08:43.417Z,61.3
2023-05-12T07:09:58.697Z,62
2023-05-12T07:11:14.923Z,62
2023-05-12T07:12:31.000Z,61.1
2023-05-12T07:13:47.393Z,60.4
2023-05-12T07:15:03.626Z,60.4
2023-05-12T07:16:19.897Z,58.7
2023-05-12T07:17:36.112Z,58.9
2023-05-12T07:18:52.338Z,58.6
2023-05-12T07:20:08.609Z,59.9
2023-05-12T07:21:24.850Z,59.3
2023-05-12T07:22:41.091Z,60
2023-05-12T07:23:57.304Z,59.6
2023-05-12T07:25:13.540Z,59.4
2023-05-12T07:26:28.795Z,59.3
2023-05-12T07:27:45.063Z,59.8
2023-05-12T07:29:01.314Z,59.9
2023-05-12T07:30:17.548Z,59.5
2023-05-12T07:31:33.749Z,59
2023-05-12T07:32:50.020Z,60.9
2023-05-12T07:34:06.254Z,59.7
2023-05-12T07:35:22.473Z,58.4
2023-05-12T07:36:38.706Z,59.3
2023-05-12T07:37:54.968Z,60.9
2023-05-12T07:39:11.191Z,59.7
2023-05-12T07:40:27.453Z,58
2023-05-12T07:41:43.672Z,58.5
2023-05-12T07:42:58.917Z,57.3
2023-05-12T07:44:15.165Z,57.3
2023-05-12T07:45:31.402Z,57.8
2023-05-12T07:46:47.636Z,57.5
2023-05-12T07:48:03.867Z,56
2023-05-12T07:49:20.135Z,57.1
2023-05-12T07:50:36.378Z,57.4
2023-05-12T07:51:52.590Z,57.1
2023-05-12T07:53:08.834Z,55.7
2023-05-12T07:54:25.066Z,55.5
2023-05-12T07:55:41.314Z,55.7
2023-05-12T07:56:57.545Z,53.6
2023-05-12T07:58:13.787Z,55.5
2023-05-12T07:59:29.037Z,55.4
2023-05-12T08:00:45.311Z,55.3
2023-05-12T08:02:01.559Z,53.1
2023-05-12T08:03:17.748Z,52.6
2023-05-12T08:04:33.990Z,53.2
2023-05-12T08:05:50.232Z,53.9
2023-05-12T08:07:05.504Z,55.4
2023-05-12T08:08:21.765Z,53.5
2023-05-12T08:09:38.006Z,54.4
2023-05-12T08:10:54.206Z,54.4
2023-05-12T08:12:10.460Z,56.1
2023-05-12T08:13:26.685Z,53.8
2023-05-12T08:14:42.924Z,54
2023-05-12T08:15:59.207Z,53.3
2023-05-12T08:17:15.433Z,53.8
2023-05-12T08:18:31.682Z,53.7
2023-05-12T08:19:47.890Z,52.8
2023-05-12T08:21:04.166Z,52.5
2023-05-12T08:22:20.357Z,52.9
2023-05-12T08:23:35.632Z,53.7
2023-05-12T08:24:51.888Z,53.5
2023-05-12T08:26:08.133Z,53.3
2023-05-12T08:27:24.372Z,52.1
2023-05-12T08:28:40.606Z,52.3
2023-05-12T08:29:56.825Z,52.5
2023-05-12T08:31:13.000Z,52.4
2023-05-12T08:32:29.304Z,52.3
2023-05-12T08:33:45.529Z,51.6
2023-05-12T08:35:01.798Z,53.1
2023-05-12T08:36:18.037Z,53.1
2023-05-12T08:37:34.276Z,52.3
2023-05-12T08:38:50.516Z,51.9
2023-05-12T08:40:05.771Z,52.5
2023-05-12T08:41:22.011Z,52.6
2023-05-12T08:42:38.251Z,52.4
2023-05-12T08:43:54.490Z,51.9
2023-05-12T08:45:10.730Z,53.6
2023-05-12T08:46:26.000Z,54.9
2023-05-12T08:47:43.209Z,52.6
2023-05-12T08:48:59.448Z,51.6
2023-05-12T08:50:15.667Z,51.8
2023-05-12T08:51:31.927Z,53.9
2023-05-12T08:52:48.167Z,53.9
2023-05-12T08:54:04.406Z,50.8
2023-05-12T08:55:20.646Z,52
2023-05-12T08:56:35.901Z,51.6
2023-05-12T08:57:52.140Z,54.5
2023-05-12T08:59:08.379Z,51.8
2023-05-12T09:00:24.619Z,53.2
2023-05-12T09:01:40.858Z,52.1
2023-05-12T09:02:57.098Z,51.5
2023-05-12T09:04:13.338Z,49.7
2023-05-12T09:05:29.577Z,51.3
2023-05-12T09:06:45.816Z,50.6
2023-05-12T09:08:02.000Z,49.1
2023-05-12T09:09:18.283Z,50.6
2023-05-12T09:10:34.535Z,51.1
2023-05-12T09:11:50.774Z,49.8
2023-05-12T09:13:06.030Z,51
2023-05-12T09:14:22.276Z,52.6
2023-05-12T09:15:38.479Z,51.3
2023-05-12T09:16:54.749Z,50.7
2023-05-12T09:18:10.989Z,50.5
2023-05-12T09:19:27.229Z,49.6
2023-05-12T09:20:43.469Z,48.1
2023-05-12T09:21:59.718Z,48.4
2023-05-12T09:23:15.948Z,50
2023-05-12T09:24:32.188Z,48.9
2023-05-12T09:25:48.427Z,49
2023-05-12T09:27:04.667Z,50
2023-05-12T09:28:20.907Z,47.5
2023-05-12T09:29:36.163Z,48.7
2023-05-12T09:30:52.403Z,46.8
2023-05-12T09:32:08.643Z,47.5
2023-05-12T09:33:24.883Z,48.8
2023-05-12T09:34:41.123Z,49.3
2023-05-12T09:35:57.348Z,48.4
2023-05-12T09:37:13.603Z,47.1
2023-05-12T09:38:29.844Z,49.1
2023-05-12T09:39:46.084Z,47.5
2023-05-12T09:41:02.324Z,47.3
2023-05-12T09:42:18.583Z,47.5
2023-05-12T09:43:34.804Z,45.5
2023-05-12T09:44:51.044Z,46.9
2023-05-12T09:46:06.300Z,47.3
2023-05-12T09:47:22.541Z,45.9
2023-05-12T09:48:38.781Z,45.1
2023-05-12T09:49:55.021Z,47
2023-05-12T09:51:11.262Z,46.7
2023-05-12T09:52:27.502Z,45.2
2023-05-12T09:53:43.715Z,45.3
2023-05-12T09:54:59.983Z,48.4
2023-05-12T09:56:16.223Z,44.6
2023-05-12T09:57:32.464Z,46.7
2023-05-12T09:58:48.704Z,46.9
2023-05-12T10:00:04.945Z,47.1
2023-05-12T10:01:21.185Z,46.6
2023-05-12T10:02:36.442Z,45.9
2023-05-12T10:03:52.661Z,45.4
2023-05-12T10:05:08.923Z,45.1
2023-05-12T10:06:25.148Z,46.8
2023-05-12T10:07:41.404Z,46.7
2023-05-12T10:08:57.644Z,46.1
2023-05-12T10:10:13.885Z,47
2023-05-12T10:11:30.094Z,45.7
2023-05-12T10:12:46.331Z,46.7
2023-05-12T10:14:02.604Z,46.4
2023-05-12T10:15:18.844Z,44.9
2023-05-12T10:16:35.084Z,45.4
2023-05-12T10:17:51.325Z,46.9
2023-05-12T10:19:06.581Z,45.9
2023-05-12T10:20:22.821Z,47
2023-05-12T10:21:39.061Z,42.9
2023-05-12T10:22:55.301Z,42.5
2023-05-12T10:24:11.541Z,44.3
2023-05-12T10:25:27.781Z,44.4
2023-05-12T10:26:44.000Z,45.8
2023-05-12T10:28:00.261Z,44
2023-05-12T10:29:16.502Z,43.3
2023-05-12T10:30:32.754Z,42.9
2023-05-12T10:31:48.983Z,43.5
2023-05-12T10:33:05.223Z,41.2
2023-05-12T10:34:21.462Z,40.4
2023-05-12T10:35:36.718Z,41.1
2023-05-12T10:36:52.943Z,41.9
2023-05-12T10:38:09.198Z,41.4
2023-05-12T10:39:25.408Z,42.2
2023-05-12T10:40:41.677Z,40.7
2023-05-12T10:41:57.000Z,40.8
2023-05-12T10:43:14.156Z,43.7
2023-05-12T10:44:30.396Z,41.3
2023-05-12T10:45:46.635Z,41.5
2023-05-12T10:47:02.875Z,44.1
2023-05-12T10:48:19.115Z,42.1
2023-05-12T10:49:35.354Z,41.5
2023-05-12T10:50:51.593Z,40.2
2023-05-12T10:52:06.849Z,41.5
2023-05-12T10:53:23.088Z,40.1
2023-05-12T10:54:39.327Z,42.4
2023-05-12T10:55:55.548Z,41.2
2023-05-12T10:57:11.806Z,39.7
2023-05-12T10:58:28.045Z,39.8
2023-05-12T10:59:44.284Z,39.5
2023-05-12T11:01:00.523Z,42.8
2023-05-12T11:02:16.731Z,41
2023-05-12T11:03:33.000Z,40.3
2023-05-12T11:04:49.207Z,42
2023-05-12T11:06:05.477Z,39.8
2023-05-12T11:07:21.000Z,39.8
2023-05-12T11:08:36.000Z,39.4
2023-05-12T11:09:53.000Z,38.6
2023-05-12T11:11:09.449Z,39.5
2023-05-12T11:12:25.688Z,38.7
2023-05-12T11:13:41.927Z,37.8
2023-05-12T11:14:58.166Z,39
2023-05-12T11:16:14.405Z,38.7
2023-05-12T11:17:30.000Z,39.2
2023-05-12T11:18:46.000Z,40.2
2023-05-12T11:20:03.119Z,38.6
2023-05-12T11:21:19.358Z,37.9
2023-05-12T11:22:35.596Z,37
2023-05-12T11:23:51.835Z,36.9
2023-05-12T11:25:07.089Z,37.6
2023-05-12T11:26:23.328Z,39.1
2023-05-12T11:27:39.567Z,38.6
2023-05-12T11:28:55.805Z,37.7
2023-05-12T11:30:12.013Z,40
2023-05-12T11:31:28.282Z,38
2023-05-12T11:32:44.520Z,37.2
2023-05-12T11:34:00.758Z,38.5
2023-05-12T11:35:16.997Z,38.5
2023-05-12T11:36:33.235Z,39.3
2023-05-12T11:37:49.473Z,38.8
2023-05-12T11:39:05.712Z,37.8
2023-05-12T11:40:21.950Z,38.3
2023-05-12T11:41:37.205Z,39
2023-05-12T11:42:53.443Z,37.6
2023-05-12T11:44:09.681Z,40.2
2023-05-12T11:45:25.920Z,37.8
2023-05-12T11:46:42.158Z,37.5
2023-05-12T11:47:58.397Z,37.3
2023-05-12T11:49:14.635Z,37.5
2023-05-12T11:50:30.874Z,35.9
2023-05-12T11:51:47.112Z,36.4
2023-05-12T11:53:03.350Z,37.1
2023-05-12T11:54:19.589Z,36.2
2023-05-12T11:55:35.806Z,36.9
2023-05-12T11:56:52.067Z,37.4
2023-05-12T11:58:07.322Z,37.4
2023-05-12T11:59:23.561Z,36.5
2023-05-12T12:00:39.800Z,38.1
2023-05-12T12:01:56.000Z,40.5
2023-05-12T12:03:12.277Z,35
2023-05-12T12:04:28.515Z,35.1
2023-05-12T12:05:44.737Z,36
2023-05-12T12:07:00.992Z,35
2023-05-12T12:08:17.231Z,34.7
2023-05-12T12:09:33.469Z,38.3
2023-05-12T12:10:49.691Z,36.8
2023-05-12T12:12:05.946Z,37.5
2023-05-12T12:13:22.184Z,36.6
2023-05-12T12:14:37.439Z,36.1
2023-05-12T12:15:53.677Z,35
2023-05-12T12:17:09.915Z,37.3
2023-05-12T12:18:26.121Z,34.2
2023-05-12T12:19:42.392Z,34.9
2023-05-12T12:20:58.617Z,35.6
2023-05-12T12:22:13.890Z,35
2023-05-12T12:23:30.104Z,37
2023-05-12T12:24:46.336Z,36.6
2023-05-12T12:26:02.577Z,36.3
2023-05-12T12:27:18.845Z,36.3
2023-05-12T12:28:35.105Z,37.8
2023-05-12T12:29:51.302Z,39
2023-05-12T12:31:07.560Z,38.7
2023-05-12T12:32:23.770Z,40
2023-05-12T12:33:40.037Z,39.5
2023-05-12T12:34:56.275Z,40.3
2023-05-12T12:36:12.514Z,40.3
2023-05-12T12:37:28.725Z,39.9
2023-05-12T12:38:44.006Z,37.4
2023-05-12T12:40:00.245Z,39.6
2023-05-12T12:41:16.483Z,39.7
2023-05-12T12:42:32.736Z,40.8
2023-05-12T12:43:48.931Z,40.3
2023-05-12T12:45:05.165Z,43.4
2023-05-12T12:46:21.437Z,41.6
2023-05-12T12:47:37.647Z,39.1
2023-05-12T12:48:53.914Z,41.6
2023-05-12T12:50:10.179Z,39.4
2023-05-12T12:51:26.391Z,37.3
2023-05-12T12:52:42.656Z,37.7
2023-05-12T12:53:58.853Z,38.3
2023-05-12T12:55:14.123Z,38.2
2023-05-12T12:56:30.332Z,38.2
2023-05-12T12:57:46.567Z,38.4
2023-05-12T12:59:02.838Z,37.6
2023-05-12T13:00:19.061Z,39.1
2023-05-12T13:01:35.314Z,39
2023-05-12T13:02:51.584Z,40.2
2023-05-12T13:04:07.791Z,39
2023-05-12T13:05:24.049Z,39.3
2023-05-12T13:06:40.268Z,39.8
2023-05-12T13:07:56.523Z,39.7
2023-05-12T13:09:12.745Z,38.3
2023-05-12T13:10:28.954Z,37.9
2023-05-12T13:11:44.209Z,38
2023-05-12T13:13:00.496Z,39.8
2023-05-12T13:14:16.716Z,39.1
2023-05-12T13:15:32.920Z,39.3
2023-05-12T13:16:49.177Z,39.8
2023-05-12T13:18:05.399Z,39.6
2023-05-12T13:19:21.669Z,40.2
2023-05-12T13:20:37.908Z,41.8
2023-05-12T13:21:54.146Z,41.3
2023-05-12T13:23:10.412Z,40.8
2023-05-12T13:24:26.623Z,39.2
2023-05-12T13:25:42.861Z,38.9
2023-05-12T13:26:59.100Z,41.3
2023-05-12T13:28:14.354Z,40.6
2023-05-12T13:29:30.562Z,40.4
2023-05-12T13:30:46.831Z,40.5
2023-05-12T13:32:03.037Z,40.1
2023-05-12T13:33:19.308Z,41.1
2023-05-12T13:34:35.000Z,41.2
2023-05-12T13:35:51.765Z,41
2023-05-12T13:37:08.023Z,40.8
2023-05-12T13:38:24.262Z,39.3
2023-05-12T13:39:40.470Z,38.7
2023-05-12T13:40:56.715Z,36.7
2023-05-12T13:42:12.948Z,38.5
2023-05-12T13:43:29.181Z,36.4
2023-05-12T13:44:44.469Z,36.4
2023-05-12T13:46:00.739Z,36.1
2023-05-12T13:47:16.945Z,36.9
2023-05-12T13:48:33.162Z,35.9
2023-05-12T13:49:49.391Z,37.7
2023-05-12T13:51:05.661Z,37
2023-05-12T13:52:21.870Z,37.2
2023-05-12T13:53:38.155Z,38.1
2023-05-12T13:54:54.377Z,38.1
2023-05-12T13:56:10.589Z,39.1
2023-05-12T13:57:26.853Z,39.1
2023-05-12T13:58:43.059Z,40.5
2023-05-12T13:59:59.304Z,41.2
2023-05-12T14:01:14.585Z,41
2023-05-12T14:02:30.823Z,39.8
2023-05-12T14:03:47.062Z,39.6
2023-05-12T14:05:03.276Z,41.1
2023-05-12T14:06:19.513Z,42.4
2023-05-12T14:07:35.745Z,38.9
2023-05-12T14:08:51.983Z,38.9
2023-05-12T14:10:08.000Z,40.1
2023-05-12T14:11:24.476Z,39.6
2023-05-12T14:12:40.000Z,39.3
2023-05-12T14:13:56.000Z,39.6
2023-05-12T14:15:13.207Z,39.7
2023-05-12T14:16:29.464Z,39.8
2023-05-12T14:17:44.669Z,39.1
2023-05-12T14:19:00.000Z,38.5
2023-05-12T14:20:17.160Z,40.2
2023-05-12T14:21:33.386Z,38
2023-05-12T14:22:49.626Z,38.2
2023-05-12T14:24:05.922Z,38.9
2023-05-12T14:25:22.129Z,39.6
2023-05-12T14:26:38.395Z,39.7
2023-05-12T14:27:54.606Z,40.5
2023-05-12T14:29:10.870Z,40.3
2023-05-12T14:30:27.083Z,40
2023-05-12T14:31:43.349Z,40.8
2023-05-12T14:32:59.560Z,41.1
2023-05-12T14:34:14.814Z,40.5
2023-05-12T14:35:31.029Z,41.6
2023-05-12T14:36:47.266Z,41.3
2023-05-12T14:38:03.529Z,39.9
2023-05-12T14:39:19.798Z,39.5
2023-05-12T14:40:36.005Z,40.8
2023-05-12T14:41:52.266Z,41.6
2023-05-12T14:43:08.461Z,41.5
2023-05-12T14:44:24.701Z,39.1
2023-05-12T14:45:40.982Z,40.5
2023-05-12T14:46:57.173Z,40.3
2023-05-12T14:48:13.436Z,41.5
2023-05-12T14:49:29.709Z,42.2
2023-05-12T14:50:44.904Z,42
2023-05-12T14:52:01.141Z,42.9
2023-05-12T14:53:17.405Z,43.1
2023-05-12T14:54:33.620Z,44.7
2023-05-12T14:55:49.882Z,44.1
2023-05-12T14:57:06.088Z,42.8
2023-05-12T14:58:22.359Z,42.7
2023-05-12T14:59:38.627Z,40.9
2023-05-12T15:00:54.835Z,43
2023-05-12T15:02:11.101Z,43.1
2023-05-12T15:03:27.312Z,43.3
2023-05-12T15:04:43.550Z,43.5
2023-05-12T15:05:59.759Z,43
2023-05-12T15:07:15.044Z,43.2
2023-05-12T15:08:31.247Z,43.4
2023-05-12T15:09:47.492Z,43.2
2023-05-12T15:11:03.759Z,43.7
2023-05-12T15:12:19.975Z,42.8
2023-05-12T15:13:36.237Z,42.8
2023-05-12T15:14:52.460Z,43.8
2023-05-12T15:16:08.686Z,43.2
2023-05-12T15:17:24.977Z,42.5
2023-05-12T15:18:41.192Z,42.4
2023-05-12T15:19:57.397Z,43.1
2023-05-12T15:21:13.637Z,43
2023-05-12T15:22:29.909Z,39.7
2023-05-12T15:23:45.000Z,41.6
2023-05-12T15:25:01.402Z,39.4
2023-05-12T15:26:17.640Z,40.2
2023-05-12T15:27:33.878Z,38.9
2023-05-12T15:28:50.117Z,39.6
2023-05-12T15:30:06.355Z,38.3
2023-05-12T15:31:22.593Z,35.5
2023-05-12T15:32:38.832Z,34.9
2023-05-12T15:33:55.070Z,34.7
2023-05-12T15:35:11.309Z,37
2023-05-12T15:36:27.547Z,37.1
2023-05-12T15:37:43.769Z,37.9
2023-05-12T15:39:00.026Z,38.7
2023-05-12T15:40:15.280Z,39
2023-05-12T15:41:31.519Z,39.8
2023-05-12T15:42:47.758Z,38.9
2023-05-12T15:44:03.996Z,39.3
2023-05-12T15:45:20.235Z,40.4
2023-05-12T15:46:36.449Z,40.1
2023-05-12T15:47:52.712Z,39.9
2023-05-12T15:49:08.951Z,40.4
2023-05-12T15:50:25.190Z,43.4
2023-05-12T15:51:41.428Z,42.9
2023-05-12T15:52:57.667Z,43.1
2023-05-12T15:54:13.942Z,43.6
2023-05-12T15:55:30.143Z,43.3
2023-05-12T15:56:45.398Z,43.4
2023-05-12T15:58:01.636Z,43.5
2023-05-12T15:59:17.847Z,45.2
2023-05-12T16:00:34.113Z,45.1
2023-05-12T16:01:50.352Z,47.1
2023-05-12T16:03:06.590Z,47.5
2023-05-12T16:04:22.828Z,46.1
2023-05-12T16:05:39.066Z,47.1
2023-05-12T16:06:55.305Z,47.7
2023-05-12T16:08:11.543Z,46.7
2023-05-12T16:09:27.781Z,44.9
2023-05-12T16:10:44.001Z,45.2
2023-05-12T16:12:00.296Z,47.2
2023-05-12T16:13:15.482Z,45.7
2023-05-12T16:14:31.719Z,45.7
2023-05-12T16:15:48.024Z,45.2
2023-05-12T16:17:04.264Z,46.6
2023-05-12T16:18:20.432Z,46.8
2023-05-12T16:19:36.681Z,44.1
2023-05-12T16:20:52.908Z,42.9
2023-05-12T16:22:09.208Z,41.9
2023-05-12T16:23:25.388Z,41.6
2023-05-12T16:24:41.631Z,41.5
2023-05-12T16:25:57.862Z,40.6
2023-05-12T16:27:14.158Z,39.7
2023-05-12T16:28:30.403Z,40.4
2023-05-12T16:29:45.599Z,39.6
2023-05-12T16:31:01.831Z,38.6
2023-05-12T16:32:18.080Z,38.8
2023-05-12T16:33:34.326Z,39.6
2023-05-12T16:34:50.615Z,38.1
2023-05-12T16:36:06.847Z,37.7
2023-05-12T16:37:22.060Z,36.2
2023-05-12T16:38:38.284Z,36.3
2023-05-12T16:39:54.524Z,36
2023-05-12T16:41:10.821Z,35.1
2023-05-12T16:42:27.014Z,36.6
2023-05-12T16:43:43.243Z,36
2023-05-12T16:44:59.484Z,34.9
2023-05-12T16:46:15.782Z,36
2023-05-12T16:47:31.969Z,35.8
2023-05-12T16:48:48.207Z,36.6
2023-05-12T16:50:04.440Z,36.2
2023-05-12T16:51:20.687Z,36
2023-05-12T16:52:36.925Z,37
2023-05-12T16:53:52.168Z,35.7
2023-05-12T16:55:08.405Z,34.4
2023-05-12T16:56:24.000Z,34.4
2023-05-12T16:57:40.000Z,35.2
2023-05-12T16:58:57.131Z,34.8
2023-05-12T17:00:13.364Z,35.4